Time;durP1;ratioP1;P1;durP2;ratioP2;P2;SDS_P1;SDS_P2;PMS_P1;PMS_P2;Temp;Humidity;BMP_temperature;BMP_pressure;BME280_temperature;BME280_humidity;BME280_pressure;Samples;Min_cycle;Max_cycle;Signal;HPM_P1;HPM_P2
2022/10/21 00:01:09;;;;;;;9.70;5.13;;;;;;;;;;5087776;28;20048;-78
2022/10/21 00:03:36;;;;;;;11.75;5.40;;;;;;;;;;5084721;28;20052;-79
2022/10/21 00:06:02;;;;;;;14.73;5.70;;;;;;;;;;5086138;28;20049;-78
2022/10/21 00:08:29;;;;;;;9.63;5.38;;;;;;;;;;5091284;28;20246;-79
2022/10/21 00:10:57;;;;;;;11.05;6.10;;;;;;;;;;5096727;28;20088;-79
2022/10/21 00:13:24;;;;;;;9.13;5.80;;;;;;;;;;5078762;28;20083;-79
2022/10/21 00:16:08;;;;;;;13.05;6.25;;;;;;;;;;5094614;28;20055;-79
2022/10/21 00:18:35;;;;;;;12.65;6.03;;;;;;;;;;5092320;28;20088;-79
2022/10/21 00:21:06;;;;;;;15.00;6.85;;;;;;;;;;5092819;28;20052;-81
2022/10/21 00:23:32;;;;;;;11.73;6.47;;;;;;;;;;5085344;28;20148;-81
2022/10/21 00:25:58;;;;;;;12.90;6.70;;;;;;;;;;5077010;28;20045;-78
2022/10/21 00:28:25;;;;;;;10.75;6.30;;;;;;;;;;5075141;28;20445;-80
2022/10/21 00:30:52;;;;;;;13.18;6.93;;;;;;;;;;5075142;28;20056;-80
2022/10/21 00:33:18;;;;;;;11.65;6.50;;;;;;;;;;5074647;28;20048;-80
2022/10/21 00:35:52;;;;;;;13.75;6.70;;;;;;;;;;5075578;28;20525;-79
2022/10/21 00:38:18;;;;;;;13.70;7.38;;;;;;;;;;5074471;28;20524;-80
2022/10/21 00:40:44;;;;;;;15.13;6.85;;;;;;;;;;5075958;28;20056;-80
2022/10/21 00:43:11;;;;;;;12.80;7.00;;;;;;;;;;5076066;28;20102;-80
2022/10/21 00:45:37;;;;;;;17.20;7.30;;;;;;;;;;5074677;28;20045;-79
2022/10/21 00:48:22;;;;;;;14.15;7.78;;;;;;;;;;5072995;28;20059;-79
2022/10/21 00:50:57;;;;;;;16.90;7.30;;;;;;;;;;5075278;28;20045;-80
2022/10/21 00:53:24;;;;;;;13.47;6.97;;;;;;;;;;5077190;28;20044;-79
2022/10/21 00:55:53;;;;;;;16.17;7.53;;;;;;;;;;5076329;28;20052;-80
2022/10/21 00:58:21;;;;;;;13.07;7.25;;;;;;;;;;5056942;28;20116;-80
2022/10/21 01:00:48;;;;;;;14.00;7.53;;;;;;;;;;5075264;28;20174;-79
2022/10/21 01:03:15;;;;;;;14.93;7.20;;;;;;;;;;5071891;28;20500;-79
2022/10/21 01:05:42;;;;;;;15.80;7.90;;;;;;;;;;5075619;28;20091;-80
2022/10/21 01:08:09;;;;;;;15.73;7.43;;;;;;;;;;5074087;28;20459;-79
2022/10/21 01:10:36;;;;;;;12.30;7.57;;;;;;;;;;5074294;28;20049;-80
2022/10/21 01:13:03;;;;;;;14.50;7.65;;;;;;;;;;5073555;28;20505;-79
2022/10/21 01:16:04;;;;;;;13.43;7.18;;;;;;;;;;5072418;28;20052;-80
2022/10/21 01:18:38;;;;;;;12.15;6.70;;;;;;;;;;5027547;28;20149;-80
2022/10/21 01:21:11;;;;;;;13.45;7.93;;;;;;;;;;5066325;28;20045;-82
2022/10/21 01:23:40;;;;;;;15.77;7.82;;;;;;;;;;5071950;28;20063;-80
2022/10/21 01:26:25;;;;;;;15.60;7.30;;;;;;;;;;5071125;28;20044;-80
2022/10/21 01:29:02;;;;;;;12.98;7.45;;;;;;;;;;5071768;28;20062;-80
2022/10/21 01:31:31;;;;;;;17.70;8.00;;;;;;;;;;5054598;28;20048;-80
2022/10/21 01:34:02;;;;;;;14.77;7.20;;;;;;;;;;5071066;28;20041;-81
2022/10/21 01:36:38;;;;;;;16.95;7.68;;;;;;;;;;5073047;28;20551;-81
2022/10/21 01:39:15;;;;;;;13.15;7.80;;;;;;;;;;5072742;28;20059;-81
2022/10/21 01:42:02;;;;;;;12.68;7.22;;;;;;;;;;5074266;28;20413;-81
2022/10/21 01:44:37;;;;;;;14.95;8.05;;;;;;;;;;5074364;28;20054;-81
2022/10/21 01:47:33;;;;;;;14.75;7.85;;;;;;;;;;5070518;28;20059;-79
2022/10/21 01:50:14;;;;;;;14.87;7.53;;;;;;;;;;5039160;28;20571;-81
2022/10/21 01:52:43;;;;;;;16.80;7.95;;;;;;;;;;5059305;28;20432;-81
2022/10/21 01:55:12;;;;;;;12.15;7.13;;;;;;;;;;5074151;28;20058;-81
2022/10/21 01:57:40;;;;;;;16.58;8.07;;;;;;;;;;5084789;28;20047;-80
2022/10/21 02:00:07;;;;;;;15.55;7.47;;;;;;;;;;5096699;28;20036;-80
2022/10/21 02:02:36;;;;;;;14.57;7.82;;;;;;;;;;5090511;28;20055;-80
2022/10/21 02:05:06;;;;;;;13.35;7.80;;;;;;;;;;5076009;28;20059;-80
2022/10/21 02:07:33;;;;;;;13.35;7.63;;;;;;;;;;5070260;28;20142;-81
2022/10/21 02:09:59;;;;;;;14.00;7.25;;;;;;;;;;5072094;28;20049;-80
2022/10/21 02:12:26;;;;;;;13.32;7.00;;;;;;;;;;5053716;28;20052;-80
2022/10/21 02:14:54;;;;;;;18.23;7.45;;;;;;;;;;5054658;28;20051;-80
2022/10/21 02:17:20;;;;;;;13.50;7.05;;;;;;;;;;5070144;28;20055;-79
2022/10/21 02:19:47;;;;;;;14.27;7.05;;;;;;;;;;5070833;28;20040;-80
2022/10/21 02:22:16;;;;;;;12.05;6.72;;;;;;;;;;5071205;28;20044;-81
2022/10/21 02:24:42;;;;;;;15.48;6.95;;;;;;;;;;5071524;28;20044;-81
2022/10/21 02:27:08;;;;;;;10.93;6.40;;;;;;;;;;5070528;28;20480;-80
2022/10/21 02:29:37;;;;;;;11.68;6.22;;;;;;;;;;5070840;28;20504;-80
2022/10/21 02:32:18;;;;;;;15.15;6.38;;;;;;;;;;5070714;28;20156;-79
2022/10/21 02:35:03;;;;;;;15.60;6.85;;;;;;;;;;5074483;28;20496;-80
2022/10/21 02:37:30;;;;;;;13.97;6.93;;;;;;;;;;5072440;28;20052;-79
2022/10/21 02:40:05;;;;;;;13.27;6.07;;;;;;;;;;5073836;28;20048;-80
2022/10/21 02:42:33;;;;;;;14.82;7.28;;;;;;;;;;5073648;28;20053;-80
2022/10/21 02:45:00;;;;;;;15.95;7.47;;;;;;;;;;5073805;28;20044;-80
2022/10/21 02:47:28;;;;;;;13.32;7.13;;;;;;;;;;5071406;28;20048;-80
2022/10/21 02:49:54;;;;;;;12.60;6.68;;;;;;;;;;5071710;28;20067;-80
2022/10/21 02:52:21;;;;;;;14.30;6.68;;;;;;;;;;5054453;28;20063;-78
2022/10/21 02:54:47;;;;;;;15.43;6.80;;;;;;;;;;5072936;28;20055;-80
2022/10/21 02:57:13;;;;;;;15.50;7.18;;;;;;;;;;5072999;28;20067;-81
2022/10/21 02:59:40;;;;;;;14.05;6.88;;;;;;;;;;5072197;28;20049;-79
2022/10/21 03:02:06;;;;;;;14.13;6.85;;;;;;;;;;5070784;28;20060;-80
2022/10/21 03:04:32;;;;;;;14.88;7.13;;;;;;;;;;5069531;28;20501;-80
2022/10/21 03:06:59;;;;;;;16.55;6.80;;;;;;;;;;5071006;28;20041;-80
2022/10/21 03:09:25;;;;;;;12.65;6.95;;;;;;;;;;5071032;28;20048;-82
2022/10/21 03:11:51;;;;;;;15.13;7.65;;;;;;;;;;5070719;28;20119;-82
2022/10/21 03:14:18;;;;;;;13.77;7.13;;;;;;;;;;5071013;28;20453;-80
2022/10/21 03:16:44;;;;;;;17.60;7.60;;;;;;;;;;5070151;28;20048;-82
2022/10/21 03:19:11;;;;;;;17.00;7.38;;;;;;;;;;5070081;28;20820;-80
2022/10/21 03:21:37;;;;;;;16.65;7.88;;;;;;;;;;5071347;28;20059;-81
2022/10/21 03:24:03;;;;;;;14.38;6.78;;;;;;;;;;5070953;28;20052;-81
2022/10/21 03:26:44;;;;;;;17.90;7.38;;;;;;;;;;5068650;28;20055;-81
2022/10/21 03:29:11;;;;;;;17.80;7.22;;;;;;;;;;5070701;28;20056;-80
2022/10/21 03:31:37;;;;;;;17.70;7.38;;;;;;;;;;5069858;28;20047;-79
2022/10/21 03:34:04;;;;;;;13.82;7.35;;;;;;;;;;5069867;28;20064;-79
2022/10/21 03:36:30;;;;;;;17.20;7.65;;;;;;;;;;5071177;28;20057;-76
2022/10/21 03:38:56;;;;;;;17.17;7.88;;;;;;;;;;5074778;28;20135;-80
2022/10/21 03:41:23;;;;;;;15.18;7.95;;;;;;;;;;5074730;28;20098;-81
2022/10/21 03:43:49;;;;;;;16.45;7.78;;;;;;;;;;5074844;28;20048;-79
2022/10/21 03:46:15;;;;;;;15.23;7.55;;;;;;;;;;5073565;28;20063;-80
2022/10/21 03:48:42;;;;;;;15.57;7.78;;;;;;;;;;5072888;28;20044;-80
2022/10/21 03:51:08;;;;;;;17.38;7.97;;;;;;;;;;5075333;28;20044;-78
2022/10/21 03:53:34;;;;;;;13.80;7.53;;;;;;;;;;5076490;28;20804;-80
2022/10/21 03:56:09;;;;;;;12.10;7.22;;;;;;;;;;5076135;28;20091;-79
2022/10/21 03:58:35;;;;;;;14.25;7.40;;;;;;;;;;5075258;28;20061;-81
2022/10/21 04:01:01;;;;;;;16.77;7.68;;;;;;;;;;5075256;28;20071;-81
2022/10/21 04:03:30;;;;;;;18.65;7.65;;;;;;;;;;5053678;28;20059;-81
2022/10/21 04:05:57;;;;;;;13.80;7.72;;;;;;;;;;5054958;28;20048;-81
2022/10/21 04:08:23;;;;;;;17.25;8.45;;;;;;;;;;5054019;28;20128;-79
2022/10/21 04:10:49;;;;;;;17.25;7.75;;;;;;;;;;5056007;28;20256;-80
2022/10/21 04:13:16;;;;;;;14.23;7.60;;;;;;;;;;5055988;28;20056;-80
2022/10/21 04:15:42;;;;;;;15.13;7.97;;;;;;;;;;5057132;28;20056;-80
2022/10/21 04:18:09;;;;;;;17.25;8.18;;;;;;;;;;5059066;28;20055;-81
2022/10/21 04:20:35;;;;;;;16.75;8.15;;;;;;;;;;5075677;28;20048;-76
2022/10/21 04:23:01;;;;;;;12.35;7.55;;;;;;;;;;5053111;28;20059;-77
2022/10/21 04:25:28;;;;;;;16.23;7.80;;;;;;;;;;5052980;28;20059;-77
2022/10/21 04:27:54;;;;;;;15.20;7.25;;;;;;;;;;5070819;28;20056;-77
2022/10/21 04:30:21;;;;;;;15.25;7.65;;;;;;;;;;5053309;28;20052;-77
2022/10/21 04:32:49;;;;;;;17.10;7.32;;;;;;;;;;5069231;28;20513;-77
2022/10/21 04:35:16;;;;;;;16.27;7.75;;;;;;;;;;5070609;28;20052;-77
2022/10/21 04:37:43;;;;;;;13.88;7.60;;;;;;;;;;5078832;28;20525;-80
2022/10/21 04:40:09;;;;;;;13.48;7.53;;;;;;;;;;5085511;28;20627;-81
2022/10/21 04:42:36;;;;;;;15.63;7.13;;;;;;;;;;5083054;28;20052;-81
2022/10/21 04:45:02;;;;;;;15.68;8.00;;;;;;;;;;5064358;28;20048;-79
2022/10/21 04:47:29;;;;;;;15.23;7.50;;;;;;;;;;5060243;28;20052;-81
2022/10/21 04:49:55;;;;;;;13.40;7.90;;;;;;;;;;5075907;28;20048;-79
2022/10/21 04:52:21;;;;;;;13.07;7.63;;;;;;;;;;5077491;28;20074;-79
2022/10/21 04:54:48;;;;;;;12.35;7.70;;;;;;;;;;5078414;28;20055;-80
2022/10/21 04:57:14;;;;;;;14.13;7.80;;;;;;;;;;5079889;28;20052;-81
2022/10/21 04:59:40;;;;;;;17.50;8.25;;;;;;;;;;5082800;28;20048;-81
2022/10/21 05:02:07;;;;;;;18.52;8.23;;;;;;;;;;5071412;28;20052;-82
2022/10/21 05:04:33;;;;;;;15.60;8.65;;;;;;;;;;5078248;28;20053;-80
2022/10/21 05:06:59;;;;;;;17.23;7.97;;;;;;;;;;5076629;28;20048;-81
2022/10/21 05:09:26;;;;;;;14.30;7.75;;;;;;;;;;5057874;28;20056;-81
2022/10/21 05:11:52;;;;;;;13.77;8.02;;;;;;;;;;5077619;28;20044;-81
2022/10/21 05:14:18;;;;;;;14.43;8.00;;;;;;;;;;5074032;28;20110;-81
2022/10/21 05:16:48;;;;;;;14.55;7.63;;;;;;;;;;5074420;28;20076;-80
2022/10/21 05:19:14;;;;;;;17.25;8.10;;;;;;;;;;5063241;28;20048;-81
2022/10/21 05:21:40;;;;;;;15.00;7.90;;;;;;;;;;5068895;28;20045;-81
2022/10/21 05:24:07;;;;;;;15.60;7.72;;;;;;;;;;5068532;28;20070;-81
2022/10/21 05:26:33;;;;;;;14.52;7.88;;;;;;;;;;5087585;28;20059;-81
2022/10/21 05:29:00;;;;;;;14.20;7.47;;;;;;;;;;5090743;28;20076;-81
2022/10/21 05:31:26;;;;;;;13.98;8.18;;;;;;;;;;5077034;28;20041;-81
2022/10/21 05:33:53;;;;;;;16.13;7.93;;;;;;;;;;5066055;28;20481;-81
2022/10/21 05:36:19;;;;;;;13.48;8.23;;;;;;;;;;5074743;28;20117;-81
2022/10/21 05:38:49;;;;;;;16.65;8.10;;;;;;;;;;5074391;28;20052;-82
2022/10/21 05:41:15;;;;;;;16.70;8.00;;;;;;;;;;5075419;28;20585;-81
2022/10/21 05:43:42;;;;;;;17.33;8.38;;;;;;;;;;5057667;28;20048;-81
2022/10/21 05:46:08;;;;;;;16.35;8.15;;;;;;;;;;5076574;28;20047;-81
2022/10/21 05:48:37;;;;;;;17.65;8.55;;;;;;;;;;5077573;28;20068;-81
2022/10/21 05:51:04;;;;;;;14.30;8.50;;;;;;;;;;5081249;28;20058;-81
2022/10/21 05:53:30;;;;;;;15.48;8.73;;;;;;;;;;5079492;28;20144;-82
2022/10/21 05:56:03;;;;;;;18.45;9.23;;;;;;;;;;5082759;28;20048;-81
2022/10/21 05:58:30;;;;;;;16.05;8.85;;;;;;;;;;5063424;28;20099;-81
2022/10/21 06:00:57;;;;;;;17.92;9.10;;;;;;;;;;5079843;28;20055;-81
2022/10/21 06:03:28;;;;;;;15.05;8.52;;;;;;;;;;5074377;28;20124;-81
2022/10/21 06:05:58;;;;;;;18.02;8.38;;;;;;;;;;5071936;28;20190;-81
2022/10/21 06:08:25;;;;;;;20.40;8.75;;;;;;;;;;5071080;28;20050;-80
2022/10/21 06:10:59;;;;;;;19.55;8.75;;;;;;;;;;5068832;28;20047;-81
2022/10/21 06:13:26;;;;;;;16.95;8.27;;;;;;;;;;5071359;28;20068;-80
2022/10/21 06:15:52;;;;;;;17.35;9.05;;;;;;;;;;5071475;28;20051;-81
2022/10/21 06:18:18;;;;;;;22.08;9.38;;;;;;;;;;5069367;28;20562;-81
2022/10/21 06:20:45;;;;;;;21.55;9.10;;;;;;;;;;5068835;28;20044;-81
2022/10/21 06:23:14;;;;;;;17.25;8.52;;;;;;;;;;5069860;28;20048;-80
2022/10/21 06:25:40;;;;;;;17.13;9.13;;;;;;;;;;5069896;28;20131;-80
2022/10/21 06:28:07;;;;;;;16.77;9.02;;;;;;;;;;5069127;28;20048;-80
2022/10/21 06:30:34;;;;;;;16.30;9.13;;;;;;;;;;5070943;28;20059;-80
2022/10/21 06:33:00;;;;;;;14.85;8.05;;;;;;;;;;5070411;28;20068;-80
2022/10/21 06:35:26;;;;;;;15.15;9.05;;;;;;;;;;5070433;28;20110;-81
2022/10/21 06:37:52;;;;;;;17.38;8.40;;;;;;;;;;5070125;28;20052;-80
2022/10/21 06:40:19;;;;;;;16.13;8.90;;;;;;;;;;5071330;28;20110;-81
2022/10/21 06:42:45;;;;;;;20.85;8.77;;;;;;;;;;5070673;28;20383;-80
2022/10/21 06:45:12;;;;;;;15.52;8.43;;;;;;;;;;5071310;28;20059;-80
2022/10/21 06:47:38;;;;;;;16.17;8.68;;;;;;;;;;5069311;28;20045;-81
2022/10/21 06:50:05;;;;;;;16.92;8.65;;;;;;;;;;5071380;28;20059;-81
2022/10/21 06:52:32;;;;;;;16.13;8.38;;;;;;;;;;5071787;28;20045;-81
2022/10/21 06:54:58;;;;;;;21.92;8.40;;;;;;;;;;5075577;28;20045;-80
2022/10/21 06:57:26;;;;;;;14.98;8.18;;;;;;;;;;5070920;28;20078;-80
2022/10/21 06:59:52;;;;;;;15.52;8.57;;;;;;;;;;5071060;28;20136;-80
2022/10/21 07:02:19;;;;;;;16.88;8.20;;;;;;;;;;5071665;28;20114;-80
2022/10/21 07:04:48;;;;;;;19.08;8.55;;;;;;;;;;5069477;28;20557;-81
2022/10/21 07:07:14;;;;;;;15.60;8.07;;;;;;;;;;5069884;28;20070;-80
2022/10/21 07:09:41;;;;;;;19.63;8.48;;;;;;;;;;5069104;28;20154;-80
2022/10/21 07:12:07;;;;;;;16.80;8.25;;;;;;;;;;5070437;28;20048;-81
2022/10/21 07:14:34;;;;;;;21.70;9.15;;;;;;;;;;5075574;28;20044;-82
2022/10/21 07:17:00;;;;;;;21.63;8.60;;;;;;;;;;5067960;28;20056;-81
2022/10/21 07:19:27;;;;;;;16.70;8.27;;;;;;;;;;5073031;28;20057;-79
2022/10/21 07:21:53;;;;;;;13.70;7.80;;;;;;;;;;5076190;28;20131;-80
2022/10/21 07:24:20;;;;;;;16.52;7.70;;;;;;;;;;5075731;28;20052;-81
2022/10/21 07:26:48;;;;;;;14.98;7.90;;;;;;;;;;5075699;28;20442;-81
2022/10/21 07:29:15;;;;;;;15.68;7.72;;;;;;;;;;5076004;28;20045;-80
2022/10/21 07:31:41;;;;;;;16.50;7.90;;;;;;;;;;5074778;28;20059;-79
2022/10/21 07:34:08;;;;;;;17.65;8.70;;;;;;;;;;5074438;28;20044;-80
2022/10/21 07:36:36;;;;;;;16.20;7.90;;;;;;;;;;5056701;28;20055;-80
2022/10/21 07:39:04;;;;;;;25.00;11.70;;;;;;;;;;5073883;28;20060;-80
2022/10/21 07:41:36;;;;;;;36.47;14.57;;;;;;;;;;5056398;28;20049;-80
2022/10/21 07:44:03;;;;;;;24.20;10.95;;;;;;;;;;5074252;28;20084;-81
2022/10/21 07:46:30;;;;;;;25.77;11.00;;;;;;;;;;5074104;28;20059;-79
2022/10/21 07:48:56;;;;;;;38.35;16.13;;;;;;;;;;5073470;28;20048;-80
2022/10/21 07:51:23;;;;;;;30.48;12.75;;;;;;;;;;5075398;28;20044;-80
2022/10/21 07:53:56;;;;;;;40.40;16.30;;;;;;;;;;5073972;28;20136;-81
2022/10/21 07:56:24;;;;;;;17.48;8.38;;;;;;;;;;5073649;28;20040;-80
2022/10/21 07:58:51;;;;;;;21.55;10.50;;;;;;;;;;5074393;28;20066;-81
2022/10/21 08:01:18;;;;;;;23.52;11.80;;;;;;;;;;5073869;28;20143;-81
2022/10/21 08:03:45;;;;;;;15.18;7.72;;;;;;;;;;5073668;28;20098;-81
2022/10/21 08:06:12;;;;;;;16.63;7.47;;;;;;;;;;5074343;28;20474;-81
2022/10/21 08:08:39;;;;;;;11.93;6.53;;;;;;;;;;5072769;28;20520;-80
2022/10/21 08:11:06;;;;;;;16.77;7.05;;;;;;;;;;5074896;28;20051;-80
2022/10/21 08:13:33;;;;;;;13.27;6.70;;;;;;;;;;5074335;28;20106;-80
2022/10/21 08:16:00;;;;;;;13.45;7.00;;;;;;;;;;5073583;28;20124;-81
2022/10/21 08:18:27;;;;;;;12.75;6.63;;;;;;;;;;5071328;28;20424;-81
2022/10/21 08:20:54;;;;;;;19.90;8.23;;;;;;;;;;5074478;28;20059;-81
2022/10/21 08:23:21;;;;;;;23.30;10.82;;;;;;;;;;5073393;28;20135;-81
2022/10/21 08:25:47;;;;;;;22.27;10.77;;;;;;;;;;5071828;28;20059;-81
2022/10/21 08:28:14;;;;;;;17.98;8.65;;;;;;;;;;5072158;28;20074;-81
2022/10/21 08:30:41;;;;;;;13.65;7.10;;;;;;;;;;5073895;28;20048;-81
2022/10/21 08:33:08;;;;;;;10.15;6.20;;;;;;;;;;5073710;28;20055;-80
2022/10/21 08:35:34;;;;;;;14.52;6.53;;;;;;;;;;5074902;28;20056;-82
2022/10/21 08:38:01;;;;;;;16.42;6.38;;;;;;;;;;5074117;28;20056;-81
2022/10/21 08:40:30;;;;;;;11.25;5.90;;;;;;;;;;5058013;28;20052;-80
2022/10/21 08:43:05;;;;;;;11.23;5.40;;;;;;;;;;5075141;28;20066;-81
2022/10/21 08:45:36;;;;;;;10.90;5.95;;;;;;;;;;5074337;28;20048;-81
2022/10/21 08:48:04;;;;;;;10.55;5.82;;;;;;;;;;5073299;28;20059;-81
2022/10/21 08:50:43;;;;;;;16.50;6.07;;;;;;;;;;5076835;28;20078;-81
2022/10/21 08:53:16;;;;;;;19.77;5.97;;;;;;;;;;5089335;28;20092;-80
2022/10/21 08:55:43;;;;;;;13.25;5.65;;;;;;;;;;5078796;28;20215;-80
2022/10/21 08:58:14;;;;;;;10.68;5.38;;;;;;;;;;5085183;28;20131;-80
2022/10/21 09:00:49;;;;;;;11.40;5.40;;;;;;;;;;5051203;28;20489;-80
2022/10/21 09:03:18;;;;;;;10.82;4.75;;;;;;;;;;5070739;28;20474;-81
2022/10/21 09:05:54;;;;;;;12.88;5.45;;;;;;;;;;5074914;28;20504;-80
2022/10/21 09:08:29;;;;;;;15.50;5.15;;;;;;;;;;5074026;28;20047;-77
2022/10/21 09:11:18;;;;;;;9.05;5.05;;;;;;;;;;5076098;28;20072;-80
2022/10/21 09:13:47;;;;;;;10.07;4.90;;;;;;;;;;5076417;28;20390;-80
2022/10/21 09:16:18;;;;;;;10.73;4.72;;;;;;;;;;5076914;28;20055;-80
2022/10/21 09:18:53;;;;;;;8.88;4.55;;;;;;;;;;5057716;28;20083;-80
2022/10/21 09:21:23;;;;;;;11.90;4.35;;;;;;;;;;5077138;28;20055;-80
2022/10/21 09:23:52;;;;;;;11.55;5.00;;;;;;;;;;5076735;28;20045;-80
2022/10/21 09:26:28;;;;;;;12.35;5.10;;;;;;;;;;5075983;28;20063;-80
2022/10/21 09:28:55;;;;;;;9.38;4.15;;;;;;;;;;5071442;28;20192;-81
2022/10/21 09:31:22;;;;;;;10.27;4.68;;;;;;;;;;5073084;28;20310;-81
2022/10/21 09:33:51;;;;;;;11.10;4.05;;;;;;;;;;5071582;28;20045;-80
2022/10/21 09:36:17;;;;;;;8.43;4.30;;;;;;;;;;5073717;28;20127;-81
2022/10/21 09:38:43;;;;;;;9.85;4.53;;;;;;;;;;5072916;28;20052;-80
2022/10/21 09:41:15;;;;;;;10.20;4.22;;;;;;;;;;5073725;28;20515;-81
2022/10/21 09:43:42;;;;;;;13.07;4.38;;;;;;;;;;5072805;28;20515;-80
2022/10/21 09:46:11;;;;;;;11.10;4.65;;;;;;;;;;5055409;28;20134;-80
2022/10/21 09:48:42;;;;;;;14.93;4.50;;;;;;;;;;5071600;28;20052;-80
2022/10/21 09:51:33;;;;;;;11.43;4.72;;;;;;;;;;5052491;28;20068;-80
2022/10/21 09:54:05;;;;;;;10.95;4.50;;;;;;;;;;5070719;28;20048;-80
2022/10/21 09:56:39;;;;;;;8.57;4.80;;;;;;;;;;5074469;28;20052;-80
2022/10/21 09:59:08;;;;;;;8.43;4.53;;;;;;;;;;5066752;28;20044;-80
2022/10/21 10:01:35;;;;;;;8.43;4.20;;;;;;;;;;5068357;28;20058;-80
2022/10/21 10:04:12;;;;;;;9.00;4.68;;;;;;;;;;5067492;28;20124;-80
2022/10/21 10:06:42;;;;;;;11.27;4.50;;;;;;;;;;5064291;28;20056;-80
2022/10/21 10:09:18;;;;;;;10.57;4.22;;;;;;;;;;5065557;28;20055;-81
2022/10/21 10:11:44;;;;;;;;;;;;;;;;;;5068395;28;20048;-81
2022/10/21 10:14:10;;;;;;;;;;;;;;;;;;5051994;28;19924;-81
2022/10/21 10:16:37;;;;;;;;;;;;;;;;;;5050802;28;19975;-81
2022/10/21 10:19:18;;;;;;;14.40;3.88;;;;;;;;;;5067550;28;19928;-80
2022/10/21 10:21:45;;;;;;;12.05;3.65;;;;;;;;;;5051109;28;20142;-81
2022/10/21 10:24:15;;;;;;;11.00;3.33;;;;;;;;;;5070422;28;20166;-81
2022/10/21 10:26:42;;;;;;;13.40;3.45;;;;;;;;;;5052615;28;20063;-80
2022/10/21 10:29:14;;;;;;;11.50;3.80;;;;;;;;;;5067740;28;20068;-80
2022/10/21 10:31:45;;;;;;;9.77;3.45;;;;;;;;;;5050803;28;20063;-81
2022/10/21 10:34:18;;;;;;;10.30;3.35;;;;;;;;;;5065816;28;20087;-79
2022/10/21 10:36:46;;;;;;;10.82;3.78;;;;;;;;;;5066802;28;20493;-79
2022/10/21 10:39:18;;;;;;;10.40;3.50;;;;;;;;;;5068615;28;20202;-80
2022/10/21 10:41:47;;;;;;;11.70;3.78;;;;;;;;;;5065513;28;20084;-81
2022/10/21 10:44:19;;;;;;;9.27;3.20;;;;;;;;;;5090042;28;20144;-80
2022/10/21 10:46:52;;;;;;;9.35;3.60;;;;;;;;;;5068717;28;20067;-80
2022/10/21 10:49:22;;;;;;;9.65;4.30;;;;;;;;;;5066831;28;20051;-79
2022/10/21 10:52:03;;;;;;;7.78;3.85;;;;;;;;;;5067450;28;20400;-79
2022/10/21 10:54:29;;;;;;;10.35;3.88;;;;;;;;;;5069936;28;20048;-79
2022/10/21 10:57:14;;;;;;;14.20;3.88;;;;;;;;;;5066738;28;20124;-79
2022/10/21 10:59:43;;;;;;;7.75;3.80;;;;;;;;;;5065473;28;20056;-80
2022/10/21 11:02:10;;;;;;;9.93;3.70;;;;;;;;;;5067046;28;20052;-79
2022/10/21 11:04:51;;;;;;;13.00;3.45;;;;;;;;;;5064244;28;20076;-79
2022/10/21 11:07:26;;;;;;;8.93;4.03;;;;;;;;;;5065398;28;20063;-80
2022/10/21 11:09:56;;;;;;;11.73;4.07;;;;;;;;;;5080480;28;20044;-81
2022/10/21 11:12:25;;;;;;;11.07;4.00;;;;;;;;;;5090093;28;20055;-80
2022/10/21 11:14:56;;;;;;;7.60;4.10;;;;;;;;;;5079496;28;20143;-80
2022/10/21 11:17:39;;;;;;;12.02;3.90;;;;;;;;;;5072079;28;20163;-80
2022/10/21 11:20:06;;;;;;;12.57;4.57;;;;;;;;;;5082281;28;20052;-80
2022/10/21 11:22:35;;;;;;;15.30;4.32;;;;;;;;;;5084047;28;20054;-79
2022/10/21 11:25:21;;;;;;;8.05;4.15;;;;;;;;;;5075668;28;20054;-80
2022/10/21 11:27:48;;;;;;;;;;;;;;;;;;5078232;28;20083;-80
2022/10/21 11:30:41;;;;;;;10.30;4.50;;;;;;;;;;5067794;28;20238;-80
2022/10/21 11:33:26;;;;;;;12.98;4.35;;;;;;;;;;5051427;28;20513;-80
2022/10/21 11:36:12;;;;;;;17.48;4.45;;;;;;;;;;5069757;28;20049;-79
2022/10/21 11:38:49;;;;;;;17.13;4.68;;;;;;;;;;5048099;28;20052;-80
2022/10/21 11:41:42;;;;;;;17.65;4.70;;;;;;;;;;5049911;28;20516;-78
2022/10/21 11:44:11;;;;;;;11.63;4.68;;;;;;;;;;5056009;28;20049;-79
2022/10/21 11:46:50;;;;;;;20.80;4.75;;;;;;;;;;5069830;28;20104;-78
2022/10/21 11:49:30;;;;;;;13.02;4.85;;;;;;;;;;5069330;28;20056;-79
2022/10/21 11:52:19;;;;;;;17.00;5.22;;;;;;;;;;5050378;28;20045;-80
2022/10/21 11:55:04;;;;;;;14.23;4.50;;;;;;;;;;5051128;28;20045;-80
2022/10/21 11:57:39;;;;;;;15.43;4.00;;;;;;;;;;5052712;28;20562;-81
2022/10/21 12:00:17;;;;;;;15.20;4.75;;;;;;;;;;5080463;28;20511;-81
2022/10/21 12:02:45;;;;;;;16.92;4.63;;;;;;;;;;5076658;28;20048;-80
2022/10/21 12:05:32;;;;;;;12.57;4.75;;;;;;;;;;5076606;28;20135;-80
2022/10/21 12:08:16;;;;;;;15.60;5.03;;;;;;;;;;5073764;28;20513;-81
2022/10/21 12:10:43;;;;;;;22.30;5.57;;;;;;;;;;5077382;28;20436;-81
2022/10/21 12:13:19;;;;;;;18.95;5.07;;;;;;;;;;5074972;28;20102;-82
2022/10/21 12:15:45;;;;;;;;;;;;;;;;;;5077438;28;20056;-81
2022/10/21 12:18:11;;;;;;;;;;;;;;;;;;5079415;28;20350;-81
2022/10/21 12:20:37;;;;;;;;;;;;;;;;;;5096690;28;19943;-81
2022/10/21 12:23:04;;;;;;;;;;;;;;;;;;5096804;28;19919;-81
2022/10/21 12:25:30;;;;;;;;;;;;;;;;;;5082608;28;19992;-81
2022/10/21 12:27:56;;;;;;;;;;;;;;;;;;5074710;28;20294;-79
2022/10/21 12:30:22;;;;;;;;;;;;;;;;;;5074960;28;20012;-80
2022/10/21 12:33:04;;;;;;;18.02;5.70;;;;;;;;;;5071244;28;19951;-80
2022/10/21 12:35:45;;;;;;;21.70;6.57;;;;;;;;;;5073101;28;20075;-80
2022/10/21 12:38:19;;;;;;;13.98;6.28;;;;;;;;;;5072885;28;20048;-80
2022/10/21 12:40:46;;;;;;;17.52;6.97;;;;;;;;;;5074325;28;20049;-82
2022/10/21 12:43:21;;;;;;;21.83;6.88;;;;;;;;;;5074627;28;20162;-81
2022/10/21 12:46:00;;;;;;;18.33;6.90;;;;;;;;;;5055796;28;20056;-81
2022/10/21 12:48:26;;;;;;;19.42;6.93;;;;;;;;;;5073345;28;20037;-81
2022/10/21 12:51:01;;;;;;;21.90;7.40;;;;;;;;;;5073748;28;20060;-79
2022/10/21 12:53:30;;;;;;;17.85;6.78;;;;;;;;;;5054685;28;20049;-81
2022/10/21 12:56:00;;;;;;;21.75;7.65;;;;;;;;;;5073123;28;20059;-81
2022/10/21 12:58:26;;;;;;;15.13;7.28;;;;;;;;;;5075222;28;20048;-80
2022/10/21 13:00:55;;;;;;;18.95;7.30;;;;;;;;;;5081929;28;20127;-81
2022/10/21 13:03:41;;;;;;;19.52;7.80;;;;;;;;;;5078861;28;20080;-81
2022/10/21 13:06:07;;;;;;;17.92;7.82;;;;;;;;;;5074173;28;20151;-81
2022/10/21 13:08:43;;;;;;;18.40;7.45;;;;;;;;;;5071232;28;20572;-81
2022/10/21 13:11:09;;;;;;;19.55;7.95;;;;;;;;;;5072683;28;20416;-81
2022/10/21 13:13:36;;;;;;;16.67;7.28;;;;;;;;;;5073225;28;20241;-82
2022/10/21 13:16:14;;;;;;;18.23;8.15;;;;;;;;;;5073150;28;20048;-81
2022/10/21 13:18:55;;;;;;;19.65;8.05;;;;;;;;;;5071085;28;20068;-81
2022/10/21 13:21:21;;;;;;;24.58;8.02;;;;;;;;;;5051191;28;20506;-82
2022/10/21 13:23:50;;;;;;;18.98;8.18;;;;;;;;;;5052667;28;20049;-81
2022/10/21 13:26:18;;;;;;;19.40;9.10;;;;;;;;;;5062464;28;20049;-81
2022/10/21 13:29:14;;;;;;;20.92;8.25;;;;;;;;;;5061488;28;20041;-81
2022/10/21 13:31:42;;;;;;;21.95;8.55;;;;;;;;;;5062322;28;20072;-81
2022/10/21 13:34:23;;;;;;;22.98;9.68;;;;;;;;;;5071265;28;20052;-81
2022/10/21 13:36:51;;;;;;;21.73;10.55;;;;;;;;;;5064366;28;20121;-80
2022/10/21 13:39:24;;;;;;;29.77;12.07;;;;;;;;;;5075304;28;20504;-81
2022/10/21 13:41:59;;;;;;;29.77;12.90;;;;;;;;;;5077264;28;20108;-80
2022/10/21 13:44:39;;;;;;;34.35;15.10;;;;;;;;;;5074870;28;20071;-80
2022/10/21 13:47:17;;;;;;;28.10;14.73;;;;;;;;;;5070995;28;20048;-79
2022/10/21 13:49:52;;;;;;;33.65;14.98;;;;;;;;;;5070563;28;20416;-81
2022/10/21 13:52:18;;;;;;;30.48;14.40;;;;;;;;;;5071097;28;20055;-80
2022/10/21 13:54:45;;;;;;;33.28;14.98;;;;;;;;;;5071768;28;20135;-81
2022/10/21 13:57:15;;;;;;;35.70;15.55;;;;;;;;;;5070676;28;20068;-81
2022/10/21 13:59:41;;;;;;;30.70;16.35;;;;;;;;;;5055042;28;20052;-79
2022/10/21 14:02:21;;;;;;;37.10;16.92;;;;;;;;;;5071067;28;20048;-81
2022/10/21 14:04:47;;;;;;;38.28;16.10;;;;;;;;;;5067685;28;20049;-81
2022/10/21 14:07:16;;;;;;;32.88;14.30;;;;;;;;;;5070723;28;20062;-81
2022/10/21 14:09:44;;;;;;;24.23;11.05;;;;;;;;;;5064574;28;20071;-81
2022/10/21 14:12:22;;;;;;;24.50;10.40;;;;;;;;;;5070262;28;20044;-81
2022/10/21 14:14:49;;;;;;;24.80;8.77;;;;;;;;;;5071332;28;20081;-80
2022/10/21 14:17:16;;;;;;;19.05;8.90;;;;;;;;;;5069157;28;20048;-81
2022/10/21 14:19:46;;;;;;;23.50;9.43;;;;;;;;;;5063329;28;20048;-81
2022/10/21 14:22:16;;;;;;;20.90;9.13;;;;;;;;;;5062599;28;20052;-80
2022/10/21 14:24:44;;;;;;;21.67;8.73;;;;;;;;;;5067741;28;20059;-82
2022/10/21 14:27:16;;;;;;;19.95;8.73;;;;;;;;;;5066399;28;20381;-81
2022/10/21 14:29:43;;;;;;;17.45;8.60;;;;;;;;;;5065230;28;20048;-82
2022/10/21 14:32:12;;;;;;;20.35;7.85;;;;;;;;;;5067153;28;20055;-81
2022/10/21 14:34:57;;;;;;;22.02;8.60;;;;;;;;;;5065047;28;20135;-81
2022/10/21 14:37:23;;;;;;;25.52;7.65;;;;;;;;;;5067015;28;20523;-80
2022/10/21 14:39:50;;;;;;;20.20;8.02;;;;;;;;;;5051134;28;20052;-81
2022/10/21 14:42:20;;;;;;;21.40;8.25;;;;;;;;;;5066728;28;20058;-81
2022/10/21 14:44:48;;;;;;;24.42;8.60;;;;;;;;;;5067376;28;20059;-81
2022/10/21 14:47:18;;;;;;;23.52;8.50;;;;;;;;;;5048322;28;20162;-82
2022/10/21 14:49:46;;;;;;;20.60;8.40;;;;;;;;;;5064946;28;20049;-80